sensor_id;sensor_type;location;lat;lon;timestamp;pressure;altitude;pressure_sealevel;temperature;humidity
15932;BME280;8065;49.520;11.284;2023-01-29T00:00:20;98620.28;;;2.23;64.15
15932;BME280;8065;49.520;11.284;2023-01-29T00:02:46;98626.06;;;2.25;64.67
15932;BME280;8065;49.520;11.284;2023-01-29T00:05:13;98611.09;;;2.09;65.31
15932;BME280;8065;49.520;11.284;2023-01-29T00:07:41;98614.84;;;2.13;64.93
15932;BME280;8065;49.520;11.284;2023-01-29T00:10:09;98618.22;;;2.25;64.52
15932;BME280;8065;49.520;11.284;2023-01-29T00:12:35;98621.06;;;2.24;64.45
15932;BME280;8065;49.520;11.284;2023-01-29T00:15:03;98629.16;;;2.22;64.85
15932;BME280;8065;49.520;11.284;2023-01-29T00:17:29;98617.19;;;2.26;65.10
15932;BME280;8065;49.520;11.284;2023-01-29T00:19:56;98611.56;;;2.35;64.93
15932;BME280;8065;49.520;11.284;2023-01-29T00:22:22;98616.78;;;2.35;64.09
15932;BME280;8065;49.520;11.284;2023-01-29T00:24:50;98621.06;;;2.24;63.51
15932;BME280;8065;49.520;11.284;2023-01-29T00:27:17;98611.09;;;2.09;65.31
15932;BME280;8065;49.520;11.284;2023-01-29T00:29:43;98614.00;;;2.24;65.02
15932;BME280;8065;49.520;11.284;2023-01-29T00:32:26;98612.41;;;2.23;63.69
15932;BME280;8065;49.520;11.284;2023-01-29T00:34:53;98618.63;;;2.06;64.27
15932;BME280;8065;49.520;11.284;2023-01-29T00:37:19;98608.56;;;2.14;64.76
15932;BME280;8065;49.520;11.284;2023-01-29T00:39:45;98610.25;;;2.20;64.62
15932;BME280;8065;49.520;11.284;2023-01-29T00:42:13;98602.63;;;2.19;63.91
15932;BME280;8065;49.520;11.284;2023-01-29T00:44:57;98598.31;;;2.13;64.98
15932;BME280;8065;49.520;11.284;2023-01-29T00:47:24;98599.50;;;2.05;65.04
15932;BME280;8065;49.520;11.284;2023-01-29T00:49:57;98596.50;;;2.13;64.46
15932;BME280;8065;49.520;11.284;2023-01-29T00:52:24;98584.28;;;2.19;65.04
15932;BME280;8065;49.520;11.284;2023-01-29T00:54:51;98594.91;;;2.12;64.40
15932;BME280;8065;49.520;11.284;2023-01-29T00:57:20;98597.69;;;2.22;64.38
15932;BME280;8065;49.520;11.284;2023-01-29T00:59:46;98591.19;;;2.25;64.36
15932;BME280;8065;49.520;11.284;2023-01-29T01:02:13;98591.81;;;2.15;64.88
15932;BME280;8065;49.520;11.284;2023-01-29T01:04:57;98595.41;;;1.97;64.43
15932;BME280;8065;49.520;11.284;2023-01-29T01:07:23;98583.56;;;1.95;65.49
15932;BME280;8065;49.520;11.284;2023-01-29T01:09:50;98594.25;;;2.05;65.38
15932;BME280;8065;49.520;11.284;2023-01-29T01:12:35;98601.13;;;1.94;64.55
15932;BME280;8065;49.520;11.284;2023-01-29T01:15:02;98601.69;;;1.96;64.85
15932;BME280;8065;49.520;11.284;2023-01-29T01:17:29;98603.75;;;1.94;64.67
15932;BME280;8065;49.520;11.284;2023-01-29T01:19:55;98592.56;;;1.99;65.13
15932;BME280;8065;49.520;11.284;2023-01-29T01:22:22;98596.88;;;2.05;65.90
15932;BME280;8065;49.520;11.284;2023-01-29T01:24:48;98595.75;;;2.01;65.90
15932;BME280;8065;49.520;11.284;2023-01-29T01:27:15;98595.41;;;1.97;65.30
15932;BME280;8065;49.520;11.284;2023-01-29T01:29:44;98600.75;;;1.74;65.29
15932;BME280;8065;49.520;11.284;2023-01-29T01:32:11;98596.81;;;1.88;65.49
15932;BME280;8065;49.520;11.284;2023-01-29T01:34:38;98593.78;;;1.80;65.12
15932;BME280;8065;49.520;11.284;2023-01-29T01:37:04;98591.72;;;1.82;65.25
15932;BME280;8065;49.520;11.284;2023-01-29T01:39:31;98587.13;;;1.89;64.76
15932;BME280;8065;49.520;11.284;2023-01-29T01:41:57;98589.00;;;1.77;65.10
15932;BME280;8065;49.520;11.284;2023-01-29T01:44:54;98597.38;;;1.90;64.85
15932;BME280;8065;49.520;11.284;2023-01-29T01:47:26;98603.13;;;1.76;64.86
15932;BME280;8065;49.520;11.284;2023-01-29T01:49:59;98597.72;;;1.66;65.34
15932;BME280;8065;49.520;11.284;2023-01-29T01:52:29;98600.59;;;1.81;65.65
15932;BME280;8065;49.520;11.284;2023-01-29T01:54:57;98587.59;;;1.86;64.86
15932;BME280;8065;49.520;11.284;2023-01-29T01:57:24;98599.47;;;1.77;65.43
15932;BME280;8065;49.520;11.284;2023-01-29T01:59:57;98594.78;;;1.79;65.78
15932;BME280;8065;49.520;11.284;2023-01-29T02:02:25;98595.38;;;1.81;65.12
15932;BME280;8065;49.520;11.284;2023-01-29T02:05:11;98597.75;;;1.82;64.61
15932;BME280;8065;49.520;11.284;2023-01-29T02:07:57;98597.09;;;1.75;64.77
15932;BME280;8065;49.520;11.284;2023-01-29T02:10:43;98603.13;;;1.76;64.49
15932;BME280;8065;49.520;11.284;2023-01-29T02:13:10;98602.84;;;1.60;65.21
15932;BME280;8065;49.520;11.284;2023-01-29T02:15:41;98602.56;;;1.74;64.93
15932;BME280;8065;49.520;11.284;2023-01-29T02:18:13;98600.03;;;1.79;64.99
15932;BME280;8065;49.520;11.284;2023-01-29T02:20:41;98602.94;;;1.66;65.00
15932;BME280;8065;49.520;11.284;2023-01-29T02:23:24;98596.94;;;1.53;65.45
15932;BME280;8065;49.520;11.284;2023-01-29T02:26:08;98594.09;;;1.55;64.91
15932;BME280;8065;49.520;11.284;2023-01-29T02:28:44;98599.78;;;1.63;64.91
15932;BME280;8065;49.520;11.284;2023-01-29T02:31:23;98599.78;;;1.52;64.76
15932;BME280;8065;49.520;11.284;2023-01-29T02:34:00;98589.22;;;1.47;65.00
15932;BME280;8065;49.520;11.284;2023-01-29T02:36:33;98591.81;;;1.58;64.40
15932;BME280;8065;49.520;11.284;2023-01-29T02:39:10;98582.94;;;1.59;64.77
15932;BME280;8065;49.520;11.284;2023-01-29T02:41:42;98589.41;;;1.57;64.14
15932;BME280;8065;49.520;11.284;2023-01-29T02:44:17;98584.50;;;1.60;64.55
15932;BME280;8065;49.520;11.284;2023-01-29T02:46:53;98576.75;;;1.66;64.73
15932;BME280;8065;49.520;11.284;2023-01-29T02:49:24;98579.03;;;1.62;64.15
15932;BME280;8065;49.520;11.284;2023-01-29T02:51:59;98577.78;;;1.64;64.25
15932;BME280;8065;49.520;11.284;2023-01-29T02:54:31;98581.53;;;1.69;64.19
15932;BME280;8065;49.520;11.284;2023-01-29T02:57:04;98577.13;;;1.57;64.91
15932;BME280;8065;49.520;11.284;2023-01-29T02:59:38;98581.34;;;1.58;64.16
15932;BME280;8065;49.520;11.284;2023-01-29T03:02:09;98580.06;;;1.61;64.07
15932;BME280;8065;49.520;11.284;2023-01-29T03:04:44;98592.84;;;1.86;63.95
15932;BME280;8065;49.520;11.284;2023-01-29T03:07:15;98596.16;;;1.41;63.90
15932;BME280;8065;49.520;11.284;2023-01-29T03:10:07;98590.94;;;1.41;63.61
15932;BME280;8065;49.520;11.284;2023-01-29T03:12:37;98596.06;;;1.36;64.60
15932;BME280;8065;49.520;11.284;2023-01-29T03:15:08;98600.38;;;1.42;64.78
15932;BME280;8065;49.520;11.284;2023-01-29T03:17:44;98596.16;;;1.41;64.79
15932;BME280;8065;49.520;11.284;2023-01-29T03:20:15;98606.28;;;1.49;64.81
15932;BME280;8065;49.520;11.284;2023-01-29T03:22:48;98612.00;;;1.46;64.45
15932;BME280;8065;49.520;11.284;2023-01-29T03:25:17;98614.47;;;1.53;64.54
15932;BME280;8065;49.520;11.284;2023-01-29T03:28:03;98621.88;;;1.56;64.43
15932;BME280;8065;49.520;11.284;2023-01-29T03:30:52;98613.13;;;1.50;64.15
15932;BME280;8065;49.520;11.284;2023-01-29T03:33:42;98610.84;;;1.42;64.34
15932;BME280;8065;49.520;11.284;2023-01-29T03:36:15;98610.97;;;1.47;64.72
15932;BME280;8065;49.520;11.284;2023-01-29T03:38:43;98604.81;;;1.53;64.26
15932;BME280;8065;49.520;11.284;2023-01-29T03:41:16;98608.66;;;1.62;64.39
15932;BME280;8065;49.520;11.284;2023-01-29T03:43:51;98615.75;;;1.50;64.48
15932;BME280;8065;49.520;11.284;2023-01-29T03:46:25;98615.53;;;1.40;64.99
15932;BME280;8065;49.520;11.284;2023-01-29T03:48:58;98601.63;;;1.51;64.29
15932;BME280;8065;49.520;11.284;2023-01-29T03:51:32;98610.03;;;1.53;63.88
15932;BME280;8065;49.520;11.284;2023-01-29T03:54:06;98605.25;;;1.50;64.56
15932;BME280;8065;49.520;11.284;2023-01-29T03:56:44;98606.41;;;1.54;64.55
15932;BME280;8065;49.520;11.284;2023-01-29T03:59:21;98611.53;;;1.49;64.42
15932;BME280;8065;49.520;11.284;2023-01-29T04:01:51;98618.59;;;1.49;64.32
15932;BME280;8065;49.520;11.284;2023-01-29T04:04:22;98623.25;;;1.47;64.38
15932;BME280;8065;49.520;11.284;2023-01-29T04:06:50;98628.06;;;1.38;65.07
15932;BME280;8065;49.520;11.284;2023-01-29T04:09:20;98623.03;;;1.48;64.58
15932;BME280;8065;49.520;11.284;2023-01-29T04:11:51;98620.50;;;1.53;65.01
15932;BME280;8065;49.520;11.284;2023-01-29T04:14:20;98623.94;;;1.54;64.65
15932;BME280;8065;49.520;11.284;2023-01-29T04:16:51;98629.28;;;1.59;64.17
15932;BME280;8065;49.520;11.284;2023-01-29T04:19:18;98629.88;;;1.26;65.02
15932;BME280;8065;49.520;11.284;2023-01-29T04:21:48;98625.00;;;1.18;66.27
15932;BME280;8065;49.520;11.284;2023-01-29T04:24:16;98626.91;;;1.34;65.79
15932;BME280;8065;49.520;11.284;2023-01-29T04:26:55;98622.59;;;1.28;65.79
15932;BME280;8065;49.520;11.284;2023-01-29T04:29:32;98619.88;;;1.23;65.56
15932;BME280;8065;49.520;11.284;2023-01-29T04:32:09;98613.25;;;1.32;65.58
15932;BME280;8065;49.520;11.284;2023-01-29T04:34:47;98605.97;;;1.34;64.54
15932;BME280;8065;49.520;11.284;2023-01-29T04:37:22;98607.56;;;1.23;65.26
15932;BME280;8065;49.520;11.284;2023-01-29T04:39:55;98607.56;;;1.35;65.03
15932;BME280;8065;49.520;11.284;2023-01-29T04:42:29;98617.13;;;1.41;64.20
15932;BME280;8065;49.520;11.284;2023-01-29T04:45:00;98610.41;;;1.45;63.79
15932;BME280;8065;49.520;11.284;2023-01-29T04:47:35;98623.97;;;1.19;64.85
15932;BME280;8065;49.520;11.284;2023-01-29T04:50:12;98626.22;;;1.27;64.74
15932;BME280;8065;49.520;11.284;2023-01-29T04:52:45;98627.50;;;1.13;64.32
15932;BME280;8065;49.520;11.284;2023-01-29T04:55:19;98627.72;;;1.11;64.63
15932;BME280;8065;49.520;11.284;2023-01-29T04:57:52;98613.28;;;0.85;66.06
15932;BME280;8065;49.520;11.284;2023-01-29T05:00:22;98613.38;;;1.02;66.08
15932;BME280;8065;49.520;11.284;2023-01-29T05:02:53;98608.84;;;1.09;65.33
15932;BME280;8065;49.520;11.284;2023-01-29T05:05:20;98601.44;;;1.18;65.51
15932;BME280;8065;49.520;11.284;2023-01-29T05:07:47;98599.50;;;1.25;65.36
15932;BME280;8065;49.520;11.284;2023-01-29T05:10:17;98597.66;;;1.25;64.27
15932;BME280;8065;49.520;11.284;2023-01-29T05:12:47;98595.97;;;1.31;64.18
15932;BME280;8065;49.520;11.284;2023-01-29T05:15:18;98600.41;;;1.19;64.83
15932;BME280;8065;49.520;11.284;2023-01-29T05:17:45;98602.69;;;1.27;64.67
15932;BME280;8065;49.520;11.284;2023-01-29T05:20:13;98595.03;;;1.37;64.02
15932;BME280;8065;49.520;11.284;2023-01-29T05:22:41;98610.19;;;1.35;63.44
15932;BME280;8065;49.520;11.284;2023-01-29T05:25:19;98608.94;;;1.26;64.67
15932;BME280;8065;49.520;11.284;2023-01-29T05:27:48;98609.28;;;1.06;66.18
15932;BME280;8065;49.520;11.284;2023-01-29T05:30:30;98608.25;;;1.19;65.47
15932;BME280;8065;49.520;11.284;2023-01-29T05:32:57;98585.28;;;1.21;65.10
15932;BME280;8065;49.520;11.284;2023-01-29T05:35:24;98583.09;;;1.29;65.30
15932;BME280;8065;49.520;11.284;2023-01-29T05:37:52;98583.44;;;1.21;65.59
15932;BME280;8065;49.520;11.284;2023-01-29T05:40:19;98584.69;;;1.19;65.52
15932;BME280;8065;49.520;11.284;2023-01-29T05:42:45;98578.66;;;1.30;65.02
15932;BME280;8065;49.520;11.284;2023-01-29T05:45:12;98576.19;;;1.12;65.37
15932;BME280;8065;49.520;11.284;2023-01-29T05:47:38;98570.28;;;0.93;66.56
15932;BME280;8065;49.520;11.284;2023-01-29T05:50:06;98559.13;;;0.97;66.38
15932;BME280;8065;49.520;11.284;2023-01-29T05:52:34;98560.81;;;0.92;65.97
15932;BME280;8065;49.520;11.284;2023-01-29T05:55:00;98559.00;;;1.04;66.28
15932;BME280;8065;49.520;11.284;2023-01-29T05:57:27;98555.13;;;1.18;65.37
15932;BME280;8065;49.520;11.284;2023-01-29T05:59:53;98548.16;;;1.24;65.15
15932;BME280;8065;49.520;11.284;2023-01-29T06:02:20;98551.56;;;1.36;64.10
15932;BME280;8065;49.520;11.284;2023-01-29T06:04:46;98545.66;;;1.29;64.41
15932;BME280;8065;49.520;11.284;2023-01-29T06:07:12;98558.63;;;1.24;64.30
15932;BME280;8065;49.520;11.284;2023-01-29T06:09:40;98560.47;;;1.12;64.32
15932;BME280;8065;49.520;11.284;2023-01-29T06:12:07;98562.28;;;1.23;64.12
15932;BME280;8065;49.520;11.284;2023-01-29T06:14:33;98564.69;;;1.01;64.75
15932;BME280;8065;49.520;11.284;2023-01-29T06:17:00;98569.84;;;0.84;64.56
15932;BME280;8065;49.520;11.284;2023-01-29T06:19:26;98568.94;;;0.67;65.87
15932;BME280;8065;49.520;11.284;2023-01-29T06:21:53;98572.09;;;0.92;65.78
15932;BME280;8065;49.520;11.284;2023-01-29T06:24:19;98566.97;;;0.97;65.20
15932;BME280;8065;49.520;11.284;2023-01-29T06:26:47;98569.34;;;1.11;65.40
15932;BME280;8065;49.520;11.284;2023-01-29T06:29:13;98576.84;;;1.19;65.68
15932;BME280;8065;49.520;11.284;2023-01-29T06:31:40;98570.03;;;1.18;64.96
15932;BME280;8065;49.520;11.284;2023-01-29T06:34:06;98569.56;;;1.21;64.93
15932;BME280;8065;49.520;11.284;2023-01-29T06:36:33;98570.69;;;1.25;64.85
15932;BME280;8065;49.520;11.284;2023-01-29T06:39:01;98564.22;;;1.27;64.54
15932;BME280;8065;49.520;11.284;2023-01-29T06:41:27;98578.66;;;1.30;64.47
15932;BME280;8065;49.520;11.284;2023-01-29T06:43:55;98576.03;;;1.30;65.20
15932;BME280;8065;49.520;11.284;2023-01-29T06:46:21;98579.78;;;1.34;64.58
15932;BME280;8065;49.520;11.284;2023-01-29T06:48:48;98580.91;;;1.38;64.82
15932;BME280;8065;49.520;11.284;2023-01-29T06:51:14;98577.75;;;1.36;64.84
15932;BME280;8065;49.520;11.284;2023-01-29T06:53:41;98575.59;;;1.33;64.53
15932;BME280;8065;49.520;11.284;2023-01-29T06:56:07;98589.34;;;1.40;64.44
15932;BME280;8065;49.520;11.284;2023-01-29T06:58:35;98606.66;;;1.41;64.18
15932;BME280;8065;49.520;11.284;2023-01-29T07:01:04;98600.63;;;1.41;64.84
15932;BME280;8065;49.520;11.284;2023-01-29T07:03:32;98592.53;;;1.42;64.88
15932;BME280;8065;49.520;11.284;2023-01-29T07:05:58;98587.16;;;1.49;63.87
15932;BME280;8065;49.520;11.284;2023-01-29T07:08:25;98594.59;;;1.40;64.63
15932;BME280;8065;49.520;11.284;2023-01-29T07:10:52;98597.91;;;1.24;64.97
15932;BME280;8065;49.520;11.284;2023-01-29T07:13:18;98597.91;;;1.24;65.56
15932;BME280;8065;49.520;11.284;2023-01-29T07:15:45;98607.22;;;1.31;65.10
15932;BME280;8065;49.520;11.284;2023-01-29T07:18:13;98600.28;;;1.14;66.30
15932;BME280;8065;49.520;11.284;2023-01-29T07:20:41;98598.13;;;1.22;65.76
15932;BME280;8065;49.520;11.284;2023-01-29T07:23:10;98605.50;;;1.37;65.62
15932;BME280;8065;49.520;11.284;2023-01-29T07:25:37;98604.94;;;1.35;65.05
15932;BME280;8065;49.520;11.284;2023-01-29T07:28:05;98609.94;;;1.37;65.27
15932;BME280;8065;49.520;11.284;2023-01-29T07:30:32;98594.59;;;1.40;65.83
15932;BME280;8065;49.520;11.284;2023-01-29T07:33:00;98604.94;;;1.47;65.50
15932;BME280;8065;49.520;11.284;2023-01-29T07:35:29;98602.44;;;1.40;65.47
15932;BME280;8065;49.520;11.284;2023-01-29T07:40:23;98604.13;;;1.46;65.80
15932;BME280;8065;49.520;11.284;2023-01-29T07:42:49;98600.63;;;1.41;65.80
15932;BME280;8065;49.520;11.284;2023-01-29T07:45:16;98589.09;;;1.53;65.10
15932;BME280;8065;49.520;11.284;2023-01-29T07:47:42;98594.56;;;1.52;64.50
15932;BME280;8065;49.520;11.284;2023-01-29T07:50:10;98609.13;;;1.59;64.29
15932;BME280;8065;49.520;11.284;2023-01-29T07:52:37;98603.41;;;1.62;64.45
15932;BME280;8065;49.520;11.284;2023-01-29T07:55:04;98608.19;;;1.66;64.97
15932;BME280;8065;49.520;11.284;2023-01-29T07:57:31;98610.72;;;1.60;64.45
15932;BME280;8065;49.520;11.284;2023-01-29T07:59:57;98623.34;;;1.63;65.26
15932;BME280;8065;49.520;11.284;2023-01-29T08:02:24;98629.47;;;1.69;64.59
15932;BME280;8065;49.520;11.284;2023-01-29T08:04:50;98638.22;;;1.75;64.64
15932;BME280;8065;49.520;11.284;2023-01-29T08:07:17;98632.44;;;1.73;65.58
15932;BME280;8065;49.520;11.284;2023-01-29T08:09:44;98630.28;;;1.70;64.75
15932;BME280;8065;49.520;11.284;2023-01-29T08:12:11;98640.59;;;1.76;64.98
15932;BME280;8065;49.520;11.284;2023-01-29T08:14:37;98631.06;;;1.70;65.81
15932;BME280;8065;49.520;11.284;2023-01-29T08:17:04;98631.72;;;1.77;65.22
15932;BME280;8065;49.520;11.284;2023-01-29T08:19:30;98638.63;;;1.83;64.76
15932;BME280;8065;49.520;11.284;2023-01-29T08:21:57;98639.22;;;1.85;65.01
15932;BME280;8065;49.520;11.284;2023-01-29T08:24:23;98644.31;;;1.92;64.95
15932;BME280;8065;49.520;11.284;2023-01-29T08:26:51;98642.72;;;1.91;64.37
15932;BME280;8065;49.520;11.284;2023-01-29T08:29:17;98647.97;;;1.91;64.35
15932;BME280;8065;49.520;11.284;2023-01-29T08:31:44;98645.44;;;1.96;64.99
15932;BME280;8065;49.520;11.284;2023-01-29T08:34:10;98640.00;;;1.86;65.06
15932;BME280;8065;49.520;11.284;2023-01-29T08:36:37;98630.09;;;1.88;64.92
15932;BME280;8065;49.520;11.284;2023-01-29T08:39:03;98633.03;;;1.91;64.63
15932;BME280;8065;49.520;11.284;2023-01-29T08:41:29;98631.56;;;1.84;63.84
15932;BME280;8065;49.520;11.284;2023-01-29T08:43:57;98637.94;;;1.88;64.55
15932;BME280;8065;49.520;11.284;2023-01-29T08:46:25;98643.84;;;1.95;63.65
15932;BME280;8065;49.520;11.284;2023-01-29T08:48:52;98647.16;;;1.90;64.32
15932;BME280;8065;49.520;11.284;2023-01-29T08:51:19;98641.38;;;1.77;64.02
15932;BME280;8065;49.520;11.284;2023-01-29T08:53:46;98642.06;;;1.84;63.72
15932;BME280;8065;49.520;11.284;2023-01-29T08:56:13;98650.94;;;1.83;64.16
15932;BME280;8065;49.520;11.284;2023-01-29T08:58:40;98651.84;;;1.88;64.48
15932;BME280;8065;49.520;11.284;2023-01-29T09:01:09;98639.53;;;1.89;64.38
15932;BME280;8065;49.520;11.284;2023-01-29T09:03:36;98631.78;;;1.94;63.94
15932;BME280;8065;49.520;11.284;2023-01-29T09:06:05;98631.50;;;2.07;63.69
15932;BME280;8065;49.520;11.284;2023-01-29T09:08:33;98636.28;;;2.10;64.51
15932;BME280;8065;49.520;11.284;2023-01-29T09:10:59;98636.94;;;2.17;64.40
15932;BME280;8065;49.520;11.284;2023-01-29T09:13:26;98631.69;;;2.17;64.94
15932;BME280;8065;49.520;11.284;2023-01-29T09:15:52;98631.03;;;2.10;64.02
15932;BME280;8065;49.520;11.284;2023-01-29T09:18:20;98633.06;;;2.20;63.80
15932;BME280;8065;49.520;11.284;2023-01-29T09:20:47;98625.59;;;2.28;64.63
15932;BME280;8065;49.520;11.284;2023-01-29T09:23:13;98628.97;;;2.41;64.69
15932;BME280;8065;49.520;11.284;2023-01-29T09:25:41;98640.63;;;2.33;63.46
15932;BME280;8065;49.520;11.284;2023-01-29T09:28:07;98642.63;;;2.43;64.03
15932;BME280;8065;49.520;11.284;2023-01-29T09:30:34;98647.50;;;2.51;64.13
15932;BME280;8065;49.520;11.284;2023-01-29T09:33:02;98622.22;;;2.45;63.23
15932;BME280;8065;49.520;11.284;2023-01-29T09:35:30;98620.63;;;2.44;64.12
15932;BME280;8065;49.520;11.284;2023-01-29T09:37:57;98613.00;;;2.42;62.86
15932;BME280;8065;49.520;11.284;2023-01-29T09:40:24;98606.94;;;2.42;62.31
15932;BME280;8065;49.520;11.284;2023-01-29T09:42:55;98609.97;;;2.50;63.59
15932;BME280;8065;49.520;11.284;2023-01-29T09:45:25;98601.97;;;2.57;63.95
15932;BME280;8065;49.520;11.284;2023-01-29T09:47:56;98607.25;;;2.62;62.57
15932;BME280;8065;49.520;11.284;2023-01-29T09:50:28;98611.56;;;2.68;63.64
15932;BME280;8065;49.520;11.284;2023-01-29T09:53:00;98613.78;;;2.76;62.11
15932;BME280;8065;49.520;11.284;2023-01-29T09:55:31;98608.06;;;2.79;61.89
15932;BME280;8065;49.520;11.284;2023-01-29T09:58:03;98608.88;;;2.46;62.53
15932;BME280;8065;49.520;11.284;2023-01-29T10:00:33;98597.28;;;2.59;61.98
15932;BME280;8065;49.520;11.284;2023-01-29T10:03:14;98592.16;;;2.69;62.73
15932;BME280;8065;49.520;11.284;2023-01-29T10:05:58;98586.09;;;2.85;61.74
15932;BME280;8065;49.520;11.284;2023-01-29T10:08:51;98594.59;;;3.09;61.09
15932;BME280;8065;49.520;11.284;2023-01-29T10:11:32;98598.31;;;3.13;61.32
15932;BME280;8065;49.520;11.284;2023-01-29T10:14:10;98604.84;;;3.27;60.78
15932;BME280;8065;49.520;11.284;2023-01-29T10:16:48;98594.94;;;3.35;60.16
15932;BME280;8065;49.520;11.284;2023-01-29T10:19:37;98600.34;;;3.45;60.56
15932;BME280;8065;49.520;11.284;2023-01-29T10:25:21;98582.63;;;3.84;59.31
15932;BME280;8065;49.520;11.284;2023-01-29T10:27:51;98582.38;;;4.07;58.28
15932;BME280;8065;49.520;11.284;2023-01-29T10:30:28;98578.19;;;4.11;59.11
15932;BME280;8065;49.520;11.284;2023-01-29T10:33:00;98581.97;;;4.20;57.66
15932;BME280;8065;49.520;11.284;2023-01-29T10:35:29;98595.28;;;4.41;57.50
15932;BME280;8065;49.520;11.284;2023-01-29T10:38:01;98599.53;;;4.47;57.65
15932;BME280;8065;49.520;11.284;2023-01-29T10:40:43;98607.16;;;4.75;57.50
15932;BME280;8065;49.520;11.284;2023-01-29T10:43:14;98613.50;;;4.79;56.81
15932;BME280;8065;49.520;11.284;2023-01-29T10:45:49;98613.91;;;4.66;57.46
15932;BME280;8065;49.520;11.284;2023-01-29T10:48:43;98602.03;;;4.26;58.29
15932;BME280;8065;49.520;11.284;2023-01-29T10:51:25;98595.47;;;4.02;58.55
15932;BME280;8065;49.520;11.284;2023-01-29T10:54:03;98590.03;;;3.87;58.45
15932;BME280;8065;49.520;11.284;2023-01-29T10:56:56;98591.06;;;3.86;59.56
15932;BME280;8065;49.520;11.284;2023-01-29T10:59:38;98592.28;;;4.00;58.72
15932;BME280;8065;49.520;11.284;2023-01-29T11:02:14;98581.97;;;3.93;59.92
15932;BME280;8065;49.520;11.284;2023-01-29T11:04:42;98570.41;;;3.73;59.91
15932;BME280;8065;49.520;11.284;2023-01-29T11:07:09;98565.78;;;3.80;59.98
15932;BME280;8065;49.520;11.284;2023-01-29T11:09:41;98557.50;;;3.93;59.06
15932;BME280;8065;49.520;11.284;2023-01-29T11:12:12;98548.03;;;3.92;59.97
15932;BME280;8065;49.520;11.284;2023-01-29T11:14:44;98544.91;;;3.95;60.43
15932;BME280;8065;49.520;11.284;2023-01-29T11:17:15;98539.19;;;4.03;60.47
15932;BME280;8065;49.520;11.284;2023-01-29T11:19:43;98530.25;;;4.04;59.72
15932;BME280;8065;49.520;11.284;2023-01-29T11:22:15;98528.13;;;4.01;59.28
15932;BME280;8065;49.520;11.284;2023-01-29T11:24:42;98509.94;;;3.94;59.25
15932;BME280;8065;49.520;11.284;2023-01-29T11:27:22;98501.53;;;3.98;59.57
15932;BME280;8065;49.520;11.284;2023-01-29T11:29:51;98506.75;;;3.66;59.33
15932;BME280;8065;49.520;11.284;2023-01-29T11:32:24;98493.47;;;3.77;60.58
15932;BME280;8065;49.520;11.284;2023-01-29T11:35:02;98498.22;;;3.80;60.14
15932;BME280;8065;49.520;11.284;2023-01-29T11:37:35;98491.88;;;3.76;59.62
15932;BME280;8065;49.520;11.284;2023-01-29T11:40:37;98485.63;;;3.82;59.85
15932;BME280;8065;49.520;11.284;2023-01-29T11:43:19;98483.28;;;3.86;60.40
15932;BME280;8065;49.520;11.284;2023-01-29T11:45:48;98475.31;;;3.76;60.80
15932;BME280;8065;49.520;11.284;2023-01-29T11:48:17;98483.16;;;3.71;61.07
15932;BME280;8065;49.520;11.284;2023-01-29T11:50:50;98477.50;;;3.84;60.86
15932;BME280;8065;49.520;11.284;2023-01-29T11:53:25;98484.78;;;3.77;59.72
15932;BME280;8065;49.520;11.284;2023-01-29T11:55:56;98488.94;;;3.73;60.38
15932;BME280;8065;49.520;11.284;2023-01-29T11:58:26;98486.06;;;3.74;60.20
15932;BME280;8065;49.520;11.284;2023-01-29T12:00:56;98480.38;;;3.82;60.85
15932;BME280;8065;49.520;11.284;2023-01-29T12:03:29;98477.09;;;3.97;60.38
15932;BME280;8065;49.520;11.284;2023-01-29T12:05:59;98464.91;;;3.86;59.96
15932;BME280;8065;49.520;11.284;2023-01-29T12:08:33;98469.03;;;4.09;59.21
15932;BME280;8065;49.520;11.284;2023-01-29T12:11:07;98466.38;;;4.04;60.10
15932;BME280;8065;49.520;11.284;2023-01-29T12:13:35;98450.47;;;4.20;59.21
15932;BME280;8065;49.520;11.284;2023-01-29T12:16:13;98443.19;;;4.33;59.28
15932;BME280;8065;49.520;11.284;2023-01-29T12:18:45;98436.38;;;4.42;58.94
15932;BME280;8065;49.520;11.284;2023-01-29T12:21:17;98432.75;;;4.53;58.48
15932;BME280;8065;49.520;11.284;2023-01-29T12:23:51;98432.75;;;4.53;58.33
15932;BME280;8065;49.520;11.284;2023-01-29T12:26:24;98425.44;;;4.60;57.85
15932;BME280;8065;49.520;11.284;2023-01-29T12:29:06;98415.94;;;4.59;57.93
15932;BME280;8065;49.520;11.284;2023-01-29T12:31:43;98427.25;;;4.54;57.79
15932;BME280;8065;49.520;11.284;2023-01-29T12:34:15;98422.28;;;4.63;57.22
15932;BME280;8065;49.520;11.284;2023-01-29T12:36:48;98420.19;;;4.65;56.72
15932;BME280;8065;49.520;11.284;2023-01-29T12:39:18;98420.50;;;4.74;57.08
15932;BME280;8065;49.520;11.284;2023-01-29T12:41:48;98411.75;;;4.63;57.08
15932;BME280;8065;49.520;11.284;2023-01-29T12:44:20;98405.41;;;4.59;57.19
15932;BME280;8065;49.520;11.284;2023-01-29T12:46:53;98404.44;;;4.70;57.28
15932;BME280;8065;49.520;11.284;2023-01-29T12:49:23;98402.84;;;4.69;56.55
15932;BME280;8065;49.520;11.284;2023-01-29T12:51:55;98399.19;;;4.75;56.73
15932;BME280;8065;49.520;11.284;2023-01-29T12:54:32;98389.16;;;4.72;56.55
15932;BME280;8065;49.520;11.284;2023-01-29T12:57:03;98386.03;;;4.75;56.85
15932;BME280;8065;49.520;11.284;2023-01-29T12:59:38;98389.97;;;4.73;57.07
15932;BME280;8065;49.520;11.284;2023-01-29T13:02:17;98393.44;;;4.88;56.22
15932;BME280;8065;49.520;11.284;2023-01-29T13:04:52;98393.97;;;4.85;56.51
15932;BME280;8065;49.520;11.284;2023-01-29T13:07:25;98381.91;;;5.00;55.80
15932;BME280;8065;49.520;11.284;2023-01-29T13:09:58;98382.41;;;4.97;55.94
15932;BME280;8065;49.520;11.284;2023-01-29T13:12:27;98378.72;;;4.98;55.98
15932;BME280;8065;49.520;11.284;2023-01-29T13:14:58;98371.91;;;5.07;56.32
15932;BME280;8065;49.520;11.284;2023-01-29T13:17:31;98386.69;;;5.13;56.22
15932;BME280;8065;49.520;11.284;2023-01-29T13:20:02;98387.69;;;5.02;55.99
15932;BME280;8065;49.520;11.284;2023-01-29T13:22:34;98389.75;;;4.84;56.85
15932;BME280;8065;49.520;11.284;2023-01-29T13:25:02;98383.97;;;4.92;56.13
15932;BME280;8065;49.520;11.284;2023-01-29T13:27:30;98375.50;;;4.75;56.28
15932;BME280;8065;49.520;11.284;2023-01-29T13:29:59;98375.97;;;4.62;55.87
15932;BME280;8065;49.520;11.284;2023-01-29T13:32:28;98373.34;;;4.67;56.40
15932;BME280;8065;49.520;11.284;2023-01-29T13:34:57;98374.41;;;4.66;56.60